sensor_id;sensor_type;location;lat;lon;timestamp;pressure;altitude;pressure_sealevel;temperature
19061;BMP280;9663;48.996;8.334;2023-08-06T00:00:06;99407.22;;;23.44
19061;BMP280;9663;48.996;8.334;2023-08-06T00:02:32;99408.25;;;23.42
19061;BMP280;9663;48.996;8.334;2023-08-06T00:04:58;99399.97;;;23.37
19061;BMP280;9663;48.996;8.334;2023-08-06T00:07:23;99408.03;;;23.32
19061;BMP280;9663;48.996;8.334;2023-08-06T00:09:49;99404.84;;;23.29
19061;BMP280;9663;48.996;8.334;2023-08-06T00:12:14;99402.69;;;23.23
19061;BMP280;9663;48.996;8.334;2023-08-06T00:14:40;99394.44;;;23.18
19061;BMP280;9663;48.996;8.334;2023-08-06T00:17:06;99394.72;;;23.14
19061;BMP280;9663;48.996;8.334;2023-08-06T00:19:32;99395.03;;;23.09
19061;BMP280;9663;48.996;8.334;2023-08-06T00:21:57;99390.28;;;23.03
19061;BMP280;9663;48.996;8.334;2023-08-06T00:24:23;99389.69;;;23.00
19061;BMP280;9663;48.996;8.334;2023-08-06T00:26:49;99380.44;;;22.96
19061;BMP280;9663;48.996;8.334;2023-08-06T00:29:15;99388.41;;;22.93
19061;BMP280;9663;48.996;8.334;2023-08-06T00:31:40;99383.63;;;22.87
19061;BMP280;9663;48.996;8.334;2023-08-06T00:34:06;99383.94;;;22.82
19061;BMP280;9663;48.996;8.334;2023-08-06T00:36:32;99384.13;;;22.79
19061;BMP280;9663;48.996;8.334;2023-08-06T00:38:57;99380.00;;;22.77
19061;BMP280;9663;48.996;8.334;2023-08-06T00:41:23;99381.75;;;22.76
19061;BMP280;9663;48.996;8.334;2023-08-06T00:43:49;99378.16;;;22.79
19061;BMP280;9663;48.996;8.334;2023-08-06T00:46:14;99370.19;;;22.82
19061;BMP280;9663;48.996;8.334;2023-08-06T00:48:42;99371.72;;;22.84
19061;BMP280;9663;48.996;8.334;2023-08-06T00:51:10;99367.41;;;22.85
19061;BMP280;9663;48.996;8.334;2023-08-06T00:53:38;99363.97;;;22.84
19061;BMP280;9663;48.996;8.334;2023-08-06T00:56:04;99368.22;;;22.85
19061;BMP280;9663;48.996;8.334;2023-08-06T00:58:30;99364.81;;;22.85
19061;BMP280;9663;48.996;8.334;2023-08-06T01:00:56;99362.44;;;22.82
19061;BMP280;9663;48.996;8.334;2023-08-06T01:03:22;99366.03;;;22.79
19061;BMP280;9663;48.996;8.334;2023-08-06T01:05:48;99359.44;;;22.75
19061;BMP280;9663;48.996;8.334;2023-08-06T01:11:27;99344.13;;;22.73
19061;BMP280;9663;48.996;8.334;2023-08-06T01:14:04;99343.81;;;22.77
19061;BMP280;9663;48.996;8.334;2023-08-06T01:16:33;99334.19;;;22.79
19061;BMP280;9663;48.996;8.334;2023-08-06T01:18:59;99337.50;;;22.81
19061;BMP280;9663;48.996;8.334;2023-08-06T01:21:24;99324.47;;;22.82
19061;BMP280;9663;48.996;8.334;2023-08-06T01:23:50;99327.88;;;22.83
19061;BMP280;9663;48.996;8.334;2023-08-06T01:26:27;99317.53;;;22.83
19061;BMP280;9663;48.996;8.334;2023-08-06T01:29:19;99323.16;;;22.77
19061;BMP280;9663;48.996;8.334;2023-08-06T01:31:51;99310.84;;;22.80
19061;BMP280;9663;48.996;8.334;2023-08-06T01:34:23;99314.25;;;22.81
19061;BMP280;9663;48.996;8.334;2023-08-06T01:36:50;99316.81;;;22.81
19061;BMP280;9663;48.996;8.334;2023-08-06T01:39:16;99316.72;;;22.82
19061;BMP280;9663;48.996;8.334;2023-08-06T01:41:42;99315.72;;;22.85
19061;BMP280;9663;48.996;8.334;2023-08-06T01:44:07;99318.06;;;22.88
19061;BMP280;9663;48.996;8.334;2023-08-06T01:46:33;99324.72;;;22.92
19061;BMP280;9663;48.996;8.334;2023-08-06T01:48:58;99324.63;;;22.93
19061;BMP280;9663;48.996;8.334;2023-08-06T01:51:24;99321.09;;;22.94
19061;BMP280;9663;48.996;8.334;2023-08-06T01:53:50;99316.78;;;22.95
19061;BMP280;9663;48.996;8.334;2023-08-06T01:56:15;99314.28;;;22.93
19061;BMP280;9663;48.996;8.334;2023-08-06T01:58:41;99315.31;;;22.91
19061;BMP280;9663;48.996;8.334;2023-08-06T02:01:07;99310.31;;;22.88
19061;BMP280;9663;48.996;8.334;2023-08-06T02:03:32;99320.75;;;22.86
19061;BMP280;9663;48.996;8.334;2023-08-06T02:05:58;99316.63;;;22.84
19061;BMP280;9663;48.996;8.334;2023-08-06T02:08:24;99316.81;;;22.81
19061;BMP280;9663;48.996;8.334;2023-08-06T02:10:49;99305.97;;;22.76
19061;BMP280;9663;48.996;8.334;2023-08-06T02:13:15;99306.28;;;22.72
19061;BMP280;9663;48.996;8.334;2023-08-06T02:15:45;99307.44;;;22.68
19061;BMP280;9663;48.996;8.334;2023-08-06T02:18:13;99304.22;;;22.64
19061;BMP280;9663;48.996;8.334;2023-08-06T02:20:40;99308.69;;;22.62
19061;BMP280;9663;48.996;8.334;2023-08-06T02:23:06;99314.75;;;22.61
19061;BMP280;9663;48.996;8.334;2023-08-06T02:25:32;99326.88;;;22.61
19061;BMP280;9663;48.996;8.334;2023-08-06T02:27:57;99316.53;;;22.61
19061;BMP280;9663;48.996;8.334;2023-08-06T02:30:23;99315.56;;;22.62
19061;BMP280;9663;48.996;8.334;2023-08-06T02:32:49;99312.19;;;22.61
19061;BMP280;9663;48.996;8.334;2023-08-06T02:35:15;99312.28;;;22.60
19061;BMP280;9663;48.996;8.334;2023-08-06T02:37:40;99313.22;;;22.59
19061;BMP280;9663;48.996;8.334;2023-08-06T02:40:07;99315.91;;;22.57
19061;BMP280;9663;48.996;8.334;2023-08-06T02:42:33;99307.53;;;22.54
19061;BMP280;9663;48.996;8.334;2023-08-06T02:44:58;99299.03;;;22.52
19061;BMP280;9663;48.996;8.334;2023-08-06T02:47:24;99320.13;;;22.46
19061;BMP280;9663;48.996;8.334;2023-08-06T02:49:50;99316.06;;;22.42
19061;BMP280;9663;48.996;8.334;2023-08-06T02:52:15;99320.81;;;22.35
19061;BMP280;9663;48.996;8.334;2023-08-06T02:54:42;99318.47;;;22.32
19061;BMP280;9663;48.996;8.334;2023-08-06T02:57:08;99328.13;;;22.29
19061;BMP280;9663;48.996;8.334;2023-08-06T02:59:33;99313.78;;;22.25
19061;BMP280;9663;48.996;8.334;2023-08-06T03:01:59;99319.34;;;22.19
19061;BMP280;9663;48.996;8.334;2023-08-06T03:04:24;99323.13;;;22.14
19061;BMP280;9663;48.996;8.334;2023-08-06T03:06:51;99314.84;;;22.09
19061;BMP280;9663;48.996;8.334;2023-08-06T03:09:17;99312.38;;;22.07
19061;BMP280;9663;48.996;8.334;2023-08-06T03:11:43;99325.56;;;22.03
19061;BMP280;9663;48.996;8.334;2023-08-06T03:14:09;99314.72;;;21.98
19061;BMP280;9663;48.996;8.334;2023-08-06T03:16:35;99313.34;;;21.92
19061;BMP280;9663;48.996;8.334;2023-08-06T03:19:01;99310.44;;;21.85
19061;BMP280;9663;48.996;8.334;2023-08-06T03:21:27;99318.38;;;21.82
19061;BMP280;9663;48.996;8.334;2023-08-06T03:23:52;99306.59;;;21.78
19061;BMP280;9663;48.996;8.334;2023-08-06T03:26:18;99323.94;;;21.76
19061;BMP280;9663;48.996;8.334;2023-08-06T03:28:44;99312.88;;;21.74
19061;BMP280;9663;48.996;8.334;2023-08-06T03:31:09;99308.75;;;21.71
19061;BMP280;9663;48.996;8.334;2023-08-06T03:33:35;99318.25;;;21.71
19061;BMP280;9663;48.996;8.334;2023-08-06T03:36:01;99319.16;;;21.70
19061;BMP280;9663;48.996;8.334;2023-08-06T03:38:27;99304.53;;;21.70
19061;BMP280;9663;48.996;8.334;2023-08-06T03:40:53;99310.50;;;21.71
19061;BMP280;9663;48.996;8.334;2023-08-06T03:43:19;99313.06;;;21.71
19061;BMP280;9663;48.996;8.334;2023-08-06T03:45:45;99315.66;;;21.71
19061;BMP280;9663;48.996;8.334;2023-08-06T03:48:10;99308.91;;;21.68
19061;BMP280;9663;48.996;8.334;2023-08-06T03:50:36;99315.03;;;21.67
19061;BMP280;9663;48.996;8.334;2023-08-06T03:53:02;99310.69;;;21.68
19061;BMP280;9663;48.996;8.334;2023-08-06T03:55:28;99311.59;;;21.67
19061;BMP280;9663;48.996;8.334;2023-08-06T03:57:53;99314.19;;;21.67
19061;BMP280;9663;48.996;8.334;2023-08-06T04:00:19;99308.28;;;21.65
19061;BMP280;9663;48.996;8.334;2023-08-06T04:02:45;99307.47;;;21.64
19061;BMP280;9663;48.996;8.334;2023-08-06T04:05:11;99301.59;;;21.62
19061;BMP280;9663;48.996;8.334;2023-08-06T04:07:37;99310.34;;;21.60
19061;BMP280;9663;48.996;8.334;2023-08-06T04:10:04;99312.91;;;21.60
19061;BMP280;9663;48.996;8.334;2023-08-06T04:12:31;99321.59;;;21.59
19061;BMP280;9663;48.996;8.334;2023-08-06T04:14:59;99316.53;;;21.57
19061;BMP280;9663;48.996;8.334;2023-08-06T04:17:24;99318.25;;;21.57
19061;BMP280;9663;48.996;8.334;2023-08-06T04:19:54;99324.38;;;21.56
19061;BMP280;9663;48.996;8.334;2023-08-06T04:22:21;99318.34;;;21.55
19061;BMP280;9663;48.996;8.334;2023-08-06T04:24:47;99319.94;;;21.58
19061;BMP280;9663;48.996;8.334;2023-08-06T04:27:15;99315.50;;;21.60
19061;BMP280;9663;48.996;8.334;2023-08-06T04:29:41;99318.06;;;21.60
19061;BMP280;9663;48.996;8.334;2023-08-06T04:32:09;99318.06;;;21.60
19061;BMP280;9663;48.996;8.334;2023-08-06T04:34:36;99318.91;;;21.60
19061;BMP280;9663;48.996;8.334;2023-08-06T04:37:03;99308.78;;;21.57
19061;BMP280;9663;48.996;8.334;2023-08-06T04:39:30;99308.78;;;21.57
19061;BMP280;9663;48.996;8.334;2023-08-06T04:41:56;99308.69;;;21.59
19061;BMP280;9663;48.996;8.334;2023-08-06T04:44:25;99310.34;;;21.60
19061;BMP280;9663;48.996;8.334;2023-08-06T04:46:51;99313.63;;;21.62
19061;BMP280;9663;48.996;8.334;2023-08-06T04:49:19;99317.59;;;21.67
19061;BMP280;9663;48.996;8.334;2023-08-06T04:51:45;99308.91;;;21.68
19061;BMP280;9663;48.996;8.334;2023-08-06T04:54:11;99315.66;;;21.71
19061;BMP280;9663;48.996;8.334;2023-08-06T04:56:36;99318.06;;;21.74
19061;BMP280;9663;48.996;8.334;2023-08-06T04:59:02;99312.66;;;21.77
19061;BMP280;9663;48.996;8.334;2023-08-06T05:01:28;99319.31;;;21.81
19061;BMP280;9663;48.996;8.334;2023-08-06T05:03:54;99320.75;;;21.85
19061;BMP280;9663;48.996;8.334;2023-08-06T05:06:19;99312.81;;;21.87
19061;BMP280;9663;48.996;8.334;2023-08-06T05:08:45;99320.38;;;21.90
19061;BMP280;9663;48.996;8.334;2023-08-06T05:11:11;99318.72;;;21.89
19061;BMP280;9663;48.996;8.334;2023-08-06T05:13:36;99319.56;;;21.90
19061;BMP280;9663;48.996;8.334;2023-08-06T05:16:02;99323.69;;;21.92
19061;BMP280;9663;48.996;8.334;2023-08-06T05:18:28;99321.81;;;21.94
19061;BMP280;9663;48.996;8.334;2023-08-06T05:20:54;99325.34;;;21.93
19061;BMP280;9663;48.996;8.334;2023-08-06T05:23:20;99324.59;;;21.91
19061;BMP280;9663;48.996;8.334;2023-08-06T05:25:46;99332.47;;;21.90
19061;BMP280;9663;48.996;8.334;2023-08-06T05:28:11;99329.88;;;21.90
19061;BMP280;9663;48.996;8.334;2023-08-06T05:30:41;99329.03;;;21.89
19061;BMP280;9663;48.996;8.334;2023-08-06T05:33:07;99326.66;;;21.86
19061;BMP280;9663;48.996;8.334;2023-08-06T05:35:32;99336.88;;;21.88
19061;BMP280;9663;48.996;8.334;2023-08-06T05:37:58;99340.31;;;21.88
19061;BMP280;9663;48.996;8.334;2023-08-06T05:40:24;99345.56;;;21.87
19061;BMP280;9663;48.996;8.334;2023-08-06T05:42:53;99344.00;;;21.85
19061;BMP280;9663;48.996;8.334;2023-08-06T05:45:19;99350.09;;;21.84
19061;BMP280;9663;48.996;8.334;2023-08-06T05:47:44;99351.38;;;21.77
19061;BMP280;9663;48.996;8.334;2023-08-06T05:50:10;99347.16;;;21.76
19061;BMP280;9663;48.996;8.334;2023-08-06T05:52:35;99347.34;;;21.73
19061;BMP280;9663;48.996;8.334;2023-08-06T05:55:01;99341.38;;;21.72
19061;BMP280;9663;48.996;8.334;2023-08-06T05:57:27;99346.44;;;21.74
19061;BMP280;9663;48.996;8.334;2023-08-06T05:59:52;99347.16;;;21.76
19061;BMP280;9663;48.996;8.334;2023-08-06T06:02:18;99343.53;;;21.78
19061;BMP280;9663;48.996;8.334;2023-08-06T06:04:44;99346.56;;;21.85
19061;BMP280;9663;48.996;8.334;2023-08-06T06:07:10;99331.63;;;21.89
19061;BMP280;9663;48.996;8.334;2023-08-06T06:09:35;99341.75;;;21.92
19061;BMP280;9663;48.996;8.334;2023-08-06T06:12:01;99338.16;;;21.95
19061;BMP280;9663;48.996;8.334;2023-08-06T06:14:26;99344.16;;;21.95
19061;BMP280;9663;48.996;8.334;2023-08-06T06:16:52;99350.22;;;21.94
19061;BMP280;9663;48.996;8.334;2023-08-06T06:19:18;99350.03;;;21.97
19061;BMP280;9663;48.996;8.334;2023-08-06T06:21:44;99354.19;;;22.00
19061;BMP280;9663;48.996;8.334;2023-08-06T06:24:09;99366.88;;;22.03
19061;BMP280;9663;48.996;8.334;2023-08-06T06:26:35;99356.44;;;22.04
19061;BMP280;9663;48.996;8.334;2023-08-06T06:29:01;99356.16;;;22.09
19061;BMP280;9663;48.996;8.334;2023-08-06T06:31:26;99357.22;;;22.06
19061;BMP280;9663;48.996;8.334;2023-08-06T06:33:52;99367.63;;;22.05
19061;BMP280;9663;48.996;8.334;2023-08-06T06:36:20;99367.00;;;22.01
19061;BMP280;9663;48.996;8.334;2023-08-06T06:38:46;99363.88;;;21.96
19061;BMP280;9663;48.996;8.334;2023-08-06T06:41:11;99364.97;;;21.92
19061;BMP280;9663;48.996;8.334;2023-08-06T06:43:37;99362.78;;;21.86
19061;BMP280;9663;48.996;8.334;2023-08-06T06:46:05;99368.06;;;21.85
19061;BMP280;9663;48.996;8.334;2023-08-06T06:48:33;99359.47;;;21.85
19061;BMP280;9663;48.996;8.334;2023-08-06T06:51:02;99366.31;;;21.86
19061;BMP280;9663;48.996;8.334;2023-08-06T06:53:28;99375.16;;;21.82
19061;BMP280;9663;48.996;8.334;2023-08-06T06:55:54;99365.13;;;21.77
19061;BMP280;9663;48.996;8.334;2023-08-06T06:58:20;99371.84;;;21.80
19061;BMP280;9663;48.996;8.334;2023-08-06T07:00:48;99376.91;;;21.81
19061;BMP280;9663;48.996;8.334;2023-08-06T07:03:15;99377.84;;;21.80
19061;BMP280;9663;48.996;8.334;2023-08-06T07:05:41;99375.38;;;21.79
19061;BMP280;9663;48.996;8.334;2023-08-06T07:08:07;99377.94;;;21.79
19061;BMP280;9663;48.996;8.334;2023-08-06T07:10:33;99377.94;;;21.79
19061;BMP280;9663;48.996;8.334;2023-08-06T07:12:58;99373.41;;;21.82
19061;BMP280;9663;48.996;8.334;2023-08-06T07:15:24;99375.91;;;21.84
19061;BMP280;9663;48.996;8.334;2023-08-06T07:17:50;99372.00;;;21.90
19061;BMP280;9663;48.996;8.334;2023-08-06T07:20:15;99367.38;;;21.95
19061;BMP280;9663;48.996;8.334;2023-08-06T07:22:41;99368.63;;;22.02
19061;BMP280;9663;48.996;8.334;2023-08-06T07:25:07;99378.69;;;22.07
19061;BMP280;9663;48.996;8.334;2023-08-06T07:27:33;99369.78;;;22.11
19061;BMP280;9663;48.996;8.334;2023-08-06T07:29:59;99391.19;;;22.13
19061;BMP280;9663;48.996;8.334;2023-08-06T07:32:24;99390.44;;;22.11
19061;BMP280;9663;48.996;8.334;2023-08-06T07:34:50;99394.16;;;22.07
19061;BMP280;9663;48.996;8.334;2023-08-06T07:37:22;99379.59;;;22.06
19061;BMP280;9663;48.996;8.334;2023-08-06T07:39:47;99385.69;;;22.05
19061;BMP280;9663;48.996;8.334;2023-08-06T07:42:13;99390.88;;;22.05
19061;BMP280;9663;48.996;8.334;2023-08-06T07:44:39;99395.19;;;22.04
19061;BMP280;9663;48.996;8.334;2023-08-06T07:47:05;99391.78;;;22.04
19061;BMP280;9663;48.996;8.334;2023-08-06T07:49:31;99395.00;;;22.07
19061;BMP280;9663;48.996;8.334;2023-08-06T07:51:59;99386.25;;;22.10
19061;BMP280;9663;48.996;8.334;2023-08-06T07:54:28;99401.41;;;22.14
19061;BMP280;9663;48.996;8.334;2023-08-06T07:56:54;99397.00;;;22.16
19061;BMP280;9663;48.996;8.334;2023-08-06T07:59:20;99391.59;;;22.07
19061;BMP280;9663;48.996;8.334;2023-08-06T08:01:48;99405.28;;;21.95
19061;BMP280;9663;48.996;8.334;2023-08-06T08:04:13;99399.59;;;21.76
19061;BMP280;9663;48.996;8.334;2023-08-06T08:06:39;99397.78;;;21.64
19061;BMP280;9663;48.996;8.334;2023-08-06T08:09:05;99400.19;;;21.53
19061;BMP280;9663;48.996;8.334;2023-08-06T08:11:30;99403.44;;;21.43
19061;BMP280;9663;48.996;8.334;2023-08-06T08:13:56;99401.16;;;21.37
19061;BMP280;9663;48.996;8.334;2023-08-06T08:16:22;99397.59;;;21.40
19061;BMP280;9663;48.996;8.334;2023-08-06T08:18:47;99398.91;;;21.46
19061;BMP280;9663;48.996;8.334;2023-08-06T08:21:13;99389.31;;;21.62
19061;BMP280;9663;48.996;8.334;2023-08-06T08:23:38;99388.28;;;21.79
19061;BMP280;9663;48.996;8.334;2023-08-06T08:26:04;99394.72;;;21.98
19061;BMP280;9663;48.996;8.334;2023-08-06T08:28:30;99387.06;;;22.10
19061;BMP280;9663;48.996;8.334;2023-08-06T08:30:56;99388.16;;;22.20
19061;BMP280;9663;48.996;8.334;2023-08-06T08:33:22;99385.91;;;22.28
19061;BMP280;9663;48.996;8.334;2023-08-06T08:35:47;99388.75;;;22.37
19061;BMP280;9663;48.996;8.334;2023-08-06T08:38:13;99391.72;;;22.44
19061;BMP280;9663;48.996;8.334;2023-08-06T08:40:47;99386.34;;;22.47
19061;BMP280;9663;48.996;8.334;2023-08-06T08:43:20;99397.31;;;22.50
19061;BMP280;9663;48.996;8.334;2023-08-06T08:45:50;99398.50;;;22.59
19061;BMP280;9663;48.996;8.334;2023-08-06T08:48:18;99399.22;;;22.61
19061;BMP280;9663;48.996;8.334;2023-08-06T08:50:48;99406.13;;;22.60
19061;BMP280;9663;48.996;8.334;2023-08-06T08:53:16;99407.16;;;22.58
19061;BMP280;9663;48.996;8.334;2023-08-06T08:55:47;99418.22;;;22.60
19061;BMP280;9663;48.996;8.334;2023-08-06T08:58:14;99416.59;;;22.59
19061;BMP280;9663;48.996;8.334;2023-08-06T09:00:42;99416.47;;;22.60
19061;BMP280;9663;48.996;8.334;2023-08-06T09:03:08;99411.59;;;22.56
19061;BMP280;9663;48.996;8.334;2023-08-06T09:05:35;99414.91;;;22.58
19061;BMP280;9663;48.996;8.334;2023-08-06T09:08:04;99411.19;;;22.62
19061;BMP280;9663;48.996;8.334;2023-08-06T09:10:30;99415.97;;;22.68
19061;BMP280;9663;48.996;8.334;2023-08-06T09:12:57;99414.44;;;22.77
19061;BMP280;9663;48.996;8.334;2023-08-06T09:15:27;99420.84;;;22.84
19061;BMP280;9663;48.996;8.334;2023-08-06T09:17:54;99420.44;;;22.90
19061;BMP280;9663;48.996;8.334;2023-08-06T09:20:20;99425.75;;;23.01
19061;BMP280;9663;48.996;8.334;2023-08-06T09:22:45;99436.22;;;23.12
19061;BMP280;9663;48.996;8.334;2023-08-06T09:25:25;99429.06;;;23.16
19061;BMP280;9663;48.996;8.334;2023-08-06T09:27:51;99422.66;;;23.21
19061;BMP280;9663;48.996;8.334;2023-08-06T09:30:35;99427.94;;;23.19
19061;BMP280;9663;48.996;8.334;2023-08-06T09:33:01;99417.59;;;23.19
19061;BMP280;9663;48.996;8.334;2023-08-06T09:35:31;99424.84;;;23.15
19061;BMP280;9663;48.996;8.334;2023-08-06T09:38:08;99425.03;;;22.99
19061;BMP280;9663;48.996;8.334;2023-08-06T09:40:36;99435.03;;;22.91
19061;BMP280;9663;48.996;8.334;2023-08-06T09:43:02;99431.38;;;22.81
19061;BMP280;9663;48.996;8.334;2023-08-06T09:45:34;99435.31;;;22.74
19061;BMP280;9663;48.996;8.334;2023-08-06T09:48:04;99438.19;;;22.70
19061;BMP280;9663;48.996;8.334;2023-08-06T09:50:35;99431.47;;;22.68
19061;BMP280;9663;48.996;8.334;2023-08-06T09:53:06;99446.16;;;22.67
19061;BMP280;9663;48.996;8.334;2023-08-06T09:55:33;99466.84;;;22.67
19061;BMP280;9663;48.996;8.334;2023-08-06T09:57:59;99458.22;;;22.67
19061;BMP280;9663;48.996;8.334;2023-08-06T10:00:26;99455.75;;;22.65
19061;BMP280;9663;48.996;8.334;2023-08-06T10:02:53;99473.31;;;22.60
19061;BMP280;9663;48.996;8.334;2023-08-06T10:05:23;99459.22;;;22.52
19061;BMP280;9663;48.996;8.334;2023-08-06T10:07:49;99463.13;;;22.45
19061;BMP280;9663;48.996;8.334;2023-08-06T10:10:19;99465.38;;;22.37
19061;BMP280;9663;48.996;8.334;2023-08-06T10:12:52;99485.59;;;22.30
19061;BMP280;9663;48.996;8.334;2023-08-06T10:15:26;99483.34;;;22.26
19061;BMP280;9663;48.996;8.334;2023-08-06T10:17:57;99498.38;;;22.20
19061;BMP280;9663;48.996;8.334;2023-08-06T10:20:25;99483.22;;;22.14
19061;BMP280;9663;48.996;8.334;2023-08-06T10:23:05;99500.31;;;22.02
19061;BMP280;9663;48.996;8.334;2023-08-06T10:25:40;99499.66;;;21.99
19061;BMP280;9663;48.996;8.334;2023-08-06T10:28:08;99502.34;;;21.97
19061;BMP280;9663;48.996;8.334;2023-08-06T10:30:42;99497.44;;;21.93
19061;BMP280;9663;48.996;8.334;2023-08-06T10:33:09;99499.13;;;21.94
19061;BMP280;9663;48.996;8.334;2023-08-06T10:35:46;99521.91;;;21.87
19061;BMP280;9663;48.996;8.334;2023-08-06T10:38:22;99522.72;;;21.88
19061;BMP280;9663;48.996;8.334;2023-08-06T10:43:33;99523.25;;;21.93
19061;BMP280;9663;48.996;8.334;2023-08-06T10:46:02;99526.69;;;21.93
19061;BMP280;9663;48.996;8.334;2023-08-06T10:48:41;99526.69;;;21.93
19061;BMP280;9663;48.996;8.334;2023-08-06T10:51:12;99537.75;;;21.95
19061;BMP280;9663;48.996;8.334;2023-08-06T10:53:43;99528.53;;;21.91
19061;BMP280;9663;48.996;8.334;2023-08-06T10:56:20;99525.31;;;21.88
19061;BMP280;9663;48.996;8.334;2023-08-06T10:58:55;99523.75;;;21.86
19061;BMP280;9663;48.996;8.334;2023-08-06T11:01:24;99551.59;;;21.81
19061;BMP280;9663;48.996;8.334;2023-08-06T11:03:54;99545.97;;;21.74
19061;BMP280;9663;48.996;8.334;2023-08-06T11:06:22;99546.06;;;21.73
19061;BMP280;9663;48.996;8.334;2023-08-06T11:08:54;99553.88;;;21.71
19061;BMP280;9663;48.996;8.334;2023-08-06T11:11:23;99560.72;;;21.72
19061;BMP280;9663;48.996;8.334;2023-08-06T11:13:50;99563.28;;;21.72
19061;BMP280;9663;48.996;8.334;2023-08-06T11:16:22;99552.97;;;21.72
19061;BMP280;9663;48.996;8.334;2023-08-06T11:18:51;99568.28;;;21.75
19061;BMP280;9663;48.996;8.334;2023-08-06T11:21:21;99563.75;;;21.79
19061;BMP280;9663;48.996;8.334;2023-08-06T11:23:48;99584.75;;;21.86
19061;BMP280;9663;48.996;8.334;2023-08-06T11:26:19;99575.56;;;21.96
19061;BMP280;9663;48.996;8.334;2023-08-06T11:28:45;99588.09;;;22.02
19061;BMP280;9663;48.996;8.334;2023-08-06T11:31:22;99556.00;;;22.06
19061;BMP280;9663;48.996;8.334;2023-08-06T11:33:51;99583.84;;;22.15
19061;BMP280;9663;48.996;8.334;2023-08-06T11:36:32;99583.69;;;22.18
19061;BMP280;9663;48.996;8.334;2023-08-06T11:39:00;99579.53;;;22.30
19061;BMP280;9663;48.996;8.334;2023-08-06T11:41:31;99587.75;;;22.36
19061;BMP280;9663;48.996;8.334;2023-08-06T11:43:59;99589.72;;;22.45
19061;BMP280;9663;48.996;8.334;2023-08-06T11:46:25;99604.56;;;22.55
19061;BMP280;9663;48.996;8.334;2023-08-06T11:48:58;99594.75;;;22.60
19061;BMP280;9663;48.996;8.334;2023-08-06T11:51:25;99592.19;;;22.60
19061;BMP280;9663;48.996;8.334;2023-08-06T11:53:56;99578.34;;;22.61
19061;BMP280;9663;48.996;8.334;2023-08-06T11:56:23;99590.13;;;22.65
19061;BMP280;9663;48.996;8.334;2023-08-06T11:58:49;99594.47;;;22.65
19061;BMP280;9663;48.996;8.334;2023-08-06T12:01:15;99603.28;;;22.62
19061;BMP280;9663;48.996;8.334;2023-08-06T12:03:41;99605.94;;;22.61
19061;BMP280;9663;48.996;8.334;2023-08-06T12:06:07;99608.81;;;22.56
19061;BMP280;9663;48.996;8.334;2023-08-06T12:08:33;99616.84;;;22.52
19061;BMP280;9663;48.996;8.334;2023-08-06T12:10:59;99609.28;;;22.49
19061;BMP280;9663;48.996;8.334;2023-08-06T12:13:24;99600.72;;;22.48
19061;BMP280;9663;48.996;8.334;2023-08-06T12:15:50;99614.44;;;22.49
19061;BMP280;9663;48.996;8.334;2023-08-06T12:18:19;99615.22;;;22.51
19061;BMP280;9663;48.996;8.334;2023-08-06T12:20:45;99608.28;;;22.51
19061;BMP280;9663;48.996;8.334;2023-08-06T12:23:10;99614.25;;;22.52
19061;BMP280;9663;48.996;8.334;2023-08-06T12:25:41;99614.91;;;22.55
19061;BMP280;9663;48.996;8.334;2023-08-06T12:28:06;99626.44;;;22.64
19061;BMP280;9663;48.996;8.334;2023-08-06T12:30:33;99623.81;;;22.77
19061;BMP280;9663;48.996;8.334;2023-08-06T12:32:58;99609.38;;;22.87
19061;BMP280;9663;48.996;8.334;2023-08-06T12:35:24;99626.91;;;22.96
19061;BMP280;9663;48.996;8.334;2023-08-06T12:37:51;99629.22;;;23.01
19061;BMP280;9663;48.996;8.334;2023-08-06T12:40:22;99615.19;;;23.05
19061;BMP280;9663;48.996;8.334;2023-08-06T12:42:50;99611.72;;;23.04
19061;BMP280;9663;48.996;8.334;2023-08-06T12:45:16;99624.22;;;22.98
19061;BMP280;9663;48.996;8.334;2023-08-06T12:47:41;99648.88;;;22.89
19061;BMP280;9663;48.996;8.334;2023-08-06T12:50:07;99642.44;;;22.82
19061;BMP280;9663;48.996;8.334;2023-08-06T12:52:33;99638.00;;;22.84
19061;BMP280;9663;48.996;8.334;2023-08-06T12:54:59;99626.28;;;22.93
19061;BMP280;9663;48.996;8.334;2023-08-06T12:57:24;99628.19;;;23.03
19061;BMP280;9663;48.996;8.334;2023-08-06T12:59:50;99616.00;;;23.17
19061;BMP280;9663;48.996;8.334;2023-08-06T13:02:16;99631.59;;;23.30
19061;BMP280;9663;48.996;8.334;2023-08-06T13:04:41;99622.19;;;23.41
19061;BMP280;9663;48.996;8.334;2023-08-06T13:07:07;99642.09;;;23.53
19061;BMP280;9663;48.996;8.334;2023-08-06T13:09:33;99647.63;;;23.61
19061;BMP280;9663;48.996;8.334;2023-08-06T13:11:59;99652.94;;;23.72
19061;BMP280;9663;48.996;8.334;2023-08-06T13:14:25;99639.56;;;23.90
19061;BMP280;9663;48.996;8.334;2023-08-06T13:16:51;99620.91;;;24.10
19061;BMP280;9663;48.996;8.334;2023-08-06T13:19:17;99646.22;;;24.31
19061;BMP280;9663;48.996;8.334;2023-08-06T13:24:11;99662.41;;;24.70
19061;BMP280;9663;48.996;8.334;2023-08-06T13:26:38;99644.44;;;24.80
19061;BMP280;9663;48.996;8.334;2023-08-06T13:29:04;99651.06;;;24.84
19061;BMP280;9663;48.996;8.334;2023-08-06T13:31:30;99648.47;;;24.84
19061;BMP280;9663;48.996;8.334;2023-08-06T13:33:56;99660.28;;;24.88
19061;BMP280;9663;48.996;8.334;2023-08-06T13:36:24;99647.81;;;24.92
19061;BMP280;9663;48.996;8.334;2023-08-06T13:38:50;99615.47;;;24.98
19061;BMP280;9663;48.996;8.334;2023-08-06T13:41:16;99646.88;;;24.93
19061;BMP280;9663;48.996;8.334;2023-08-06T13:43:42;99656.03;;;24.87
19061;BMP280;9663;48.996;8.334;2023-08-06T13:46:09;99656.38;;;24.82
19061;BMP280;9663;48.996;8.334;2023-08-06T13:48:39;99644.94;;;24.85
19061;BMP280;9663;48.996;8.334;2023-08-06T13:51:05;99657.47;;;24.90
19061;BMP280;9663;48.996;8.334;2023-08-06T13:53:30;99658.06;;;24.94
19061;BMP280;9663;48.996;8.334;2023-08-06T13:55:56;99636.50;;;24.93
19061;BMP280;9663;48.996;8.334;2023-08-06T13:58:23;99660.50;;;24.97
19061;BMP280;9663;48.996;8.334;2023-08-06T14:00:49;99657.97;;;25.08
19061;BMP280;9663;48.996;8.334;2023-08-06T14:03:18;99663.97;;;25.32
19061;BMP280;9663;48.996;8.334;2023-08-06T14:05:44;99665.69;;;25.77
19061;BMP280;9663;48.996;8.334;2023-08-06T14:08:10;99679.38;;;26.35
19061;BMP280;9663;48.996;8.334;2023-08-06T14:10:36;99670.59;;;26.91
19061;BMP280;9663;48.996;8.334;2023-08-06T14:13:02;99656.84;;;27.10
19061;BMP280;9663;48.996;8.334;2023-08-06T14:15:27;99686.19;;;27.12
19061;BMP280;9663;48.996;8.334;2023-08-06T14:17:53;99676.25;;;27.07
19061;BMP280;9663;48.996;8.334;2023-08-06T14:20:19;99696.13;;;27.08
19061;BMP280;9663;48.996;8.334;2023-08-06T14:22:44;99682.03;;;27.21
19061;BMP280;9663;48.996;8.334;2023-08-06T14:25:10;99670.16;;;27.28
19061;BMP280;9663;48.996;8.334;2023-08-06T14:27:36;99679.06;;;27.14